Time;durP1;ratioP1;P1;durP2;ratioP2;P2;SDS_P1;SDS_P2;PMS_P1;PMS_P2;Temp;Humidity;BMP_temperature;BMP_pressure;BME280_temperature;BME280_humidity;BME280_pressure;Samples;Min_cycle;Max_cycle;Signal;HPM_P1;HPM_P2
2021/09/19 00:00:26;;;;;;;12.27;10.80;;;13.50;99.90;;;;;;5053945;28;20013;-80
2021/09/19 00:02:51;;;;;;;11.32;10.30;;;13.50;99.90;;;;;;5054811;28;20024;-78
2021/09/19 00:05:17;;;;;;;11.63;10.63;;;13.40;99.90;;;;;;5054013;28;20021;-78
2021/09/19 00:07:43;;;;;;;10.52;9.63;;;13.40;99.90;;;;;;5054490;28;20033;-79
2021/09/19 00:10:10;;;;;;;10.63;9.50;;;13.40;99.90;;;;;;5052994;28;20476;-79
2021/09/19 00:12:37;;;;;;;12.02;10.65;;;13.40;99.90;;;;;;5054071;28;20025;-78
2021/09/19 00:15:04;;;;;;;12.27;11.18;;;13.30;99.90;;;;;;5052385;28;20017;-79
2021/09/19 00:17:30;;;;;;;11.88;10.77;;;13.20;99.90;;;;;;5052993;28;20402;-79
2021/09/19 00:19:55;;;;;;;12.07;11.05;;;13.20;99.90;;;;;;5053046;28;20021;-79
2021/09/19 00:22:21;;;;;;;12.07;10.95;;;13.20;99.90;;;;;;5053916;28;20029;-79
2021/09/19 00:24:46;;;;;;;11.65;10.45;;;13.20;99.90;;;;;;5054062;28;20032;-78
2021/09/19 00:27:12;;;;;;;11.98;10.77;;;13.10;99.90;;;;;;5054790;28;20033;-78
2021/09/19 00:29:37;;;;;;;14.32;10.68;;;13.10;99.90;;;;;;5052360;28;20068;-78
2021/09/19 00:32:03;;;;;;;12.23;11.23;;;13.10;99.90;;;;;;5053537;28;20063;-79
2021/09/19 00:34:29;;;;;;;11.95;10.75;;;13.10;99.90;;;;;;5052632;28;20036;-78
2021/09/19 00:36:54;;;;;;;11.52;10.38;;;13.10;99.90;;;;;;5052517;28;20028;-79
2021/09/19 00:39:20;;;;;;;12.27;11.07;;;13.10;99.90;;;;;;5053819;28;20029;-80
2021/09/19 00:41:46;;;;;;;10.90;9.80;;;13.00;99.90;;;;;;5052581;28;20022;-79
2021/09/19 00:44:11;;;;;;;11.63;10.63;;;13.00;99.90;;;;;;5058678;28;20021;-79
2021/09/19 00:46:38;;;;;;;12.10;11.00;;;12.90;99.90;;;;;;5071913;28;20021;-78
2021/09/19 00:49:04;;;;;;;12.80;11.60;;;12.90;99.90;;;;;;5072414;28;20504;-79
2021/09/19 00:51:31;;;;;;;12.50;11.40;;;12.90;99.90;;;;;;5072152;28;20029;-79
2021/09/19 00:53:57;;;;;;;12.30;11.18;;;12.90;99.90;;;;;;5073860;28;20039;-78
2021/09/19 00:56:25;;;;;;;14.27;12.90;;;12.80;99.90;;;;;;5061675;28;20029;-79
2021/09/19 00:58:52;;;;;;;12.18;11.10;;;12.90;99.90;;;;;;5052732;28;20020;-78
2021/09/19 01:01:18;;;;;;;13.00;11.70;;;12.90;99.90;;;;;;5052750;28;20025;-79
2021/09/19 01:03:45;;;;;;;12.88;11.77;;;13.00;99.90;;;;;;5051690;28;20027;-80
2021/09/19 01:06:11;;;;;;;12.07;10.77;;;12.90;99.90;;;;;;5052744;28;20025;-79
2021/09/19 01:08:36;;;;;;;12.80;11.60;;;12.90;99.90;;;;;;5051778;28;20036;-79
2021/09/19 01:11:03;;;;;;;12.85;11.65;;;12.90;99.90;;;;;;5052139;28;20024;-79
2021/09/19 01:13:28;;;;;;;12.50;11.30;;;12.90;99.90;;;;;;5052764;28;20396;-77
2021/09/19 01:15:54;;;;;;;12.27;11.23;;;12.80;99.90;;;;;;5059947;28;20013;-78
2021/09/19 01:18:23;;;;;;;13.60;12.05;;;12.80;99.90;;;;;;5070759;28;20117;-78
2021/09/19 01:20:49;;;;;;;12.05;10.95;;;12.80;99.90;;;;;;5060750;28;20029;-80
2021/09/19 01:23:15;;;;;;;14.88;11.70;;;12.70;99.90;;;;;;5053125;28;20445;-80
2021/09/19 01:25:43;;;;;;;13.35;12.00;;;12.60;99.90;;;;;;5053530;28;20120;-80
2021/09/19 01:28:10;;;;;;;12.45;11.32;;;12.70;99.90;;;;;;5053724;28;20056;-80
2021/09/19 01:30:36;;;;;;;12.25;11.20;;;12.60;99.90;;;;;;5052699;28;20039;-80
2021/09/19 01:33:03;;;;;;;11.88;10.85;;;12.70;99.90;;;;;;5052331;28;20369;-80
2021/09/19 01:35:29;;;;;;;12.68;11.43;;;12.60;99.90;;;;;;5053185;28;20053;-80
2021/09/19 01:37:56;;;;;;;12.32;11.20;;;12.60;99.90;;;;;;5052973;28;20400;-79
2021/09/19 01:40:23;;;;;;;12.63;11.32;;;12.60;99.90;;;;;;5064290;28;20081;-79
2021/09/19 01:42:48;;;;;;;13.57;12.35;;;12.50;99.90;;;;;;5072832;28;20032;-78
2021/09/19 01:45:14;;;;;;;14.00;12.35;;;12.50;99.90;;;;;;5074573;28;20024;-80
2021/09/19 01:47:40;;;;;;;13.27;12.07;;;12.50;99.90;;;;;;5073421;28;20070;-82
2021/09/19 01:50:07;;;;;;;13.27;11.65;;;12.40;99.90;;;;;;5072572;28;20040;-80
2021/09/19 01:52:33;;;;;;;13.65;11.73;;;12.40;99.90;;;;;;5073170;28;20024;-79
2021/09/19 01:54:59;;;;;;;13.13;11.93;;;12.30;99.90;;;;;;5072518;28;20048;-79
2021/09/19 01:57:25;;;;;;;13.50;11.95;;;12.20;99.90;;;;;;5055419;28;20025;-80
2021/09/19 01:59:54;;;;;;;12.43;11.32;;;12.20;99.90;;;;;;5052437;28;20025;-79
2021/09/19 02:02:21;;;;;;;12.98;11.68;;;12.30;99.90;;;;;;5053407;28;20017;-80
2021/09/19 02:04:49;;;;;;;12.57;11.35;;;12.30;99.90;;;;;;5053848;28;20029;-81
2021/09/19 02:07:15;;;;;;;12.35;11.00;;;12.30;99.90;;;;;;5052631;28;20400;-80
2021/09/19 02:09:40;;;;;;;12.10;11.10;;;12.30;99.90;;;;;;5060606;28;20032;-80
2021/09/19 02:12:06;;;;;;;12.50;11.40;;;12.30;99.90;;;;;;5069088;28;20111;-79
2021/09/19 02:14:32;;;;;;;13.20;11.82;;;12.20;99.90;;;;;;5073520;28;20020;-80
2021/09/19 02:16:57;;;;;;;12.20;10.95;;;12.20;99.90;;;;;;5074188;28;20024;-79
2021/09/19 02:19:23;;;;;;;11.80;10.60;;;12.20;99.90;;;;;;5051667;28;20351;-79
2021/09/19 02:21:49;;;;;;;11.77;10.73;;;12.20;99.90;;;;;;5033729;28;20037;-80
2021/09/19 02:24:15;;;;;;;12.25;10.38;;;12.20;99.90;;;;;;5049235;28;20029;-80
2021/09/19 02:26:40;;;;;;;12.57;11.35;;;12.20;99.90;;;;;;5051690;28;20061;-80
2021/09/19 02:29:06;;;;;;;10.90;9.90;;;12.20;99.90;;;;;;5051857;28;20060;-79
2021/09/19 02:31:31;;;;;;;13.18;11.88;;;12.20;99.90;;;;;;5053413;28;20092;-79
2021/09/19 02:33:58;;;;;;;11.18;10.18;;;12.20;99.90;;;;;;5052181;28;20093;-79
2021/09/19 02:36:24;;;;;;;12.20;10.95;;;12.20;99.90;;;;;;5055026;28;20031;-80
2021/09/19 02:38:50;;;;;;;11.55;10.35;;;12.10;99.90;;;;;;5054051;28;20020;-79
2021/09/19 02:41:15;;;;;;;11.98;10.88;;;12.10;99.90;;;;;;5053031;28;20025;-79
2021/09/19 02:43:41;;;;;;;12.23;11.05;;;12.10;99.90;;;;;;5054876;28;20051;-79
2021/09/19 02:46:06;;;;;;;11.55;10.55;;;12.10;99.90;;;;;;5056297;28;20033;-79
2021/09/19 02:48:32;;;;;;;12.77;11.57;;;12.00;99.90;;;;;;5056426;28;20032;-79
2021/09/19 02:50:59;;;;;;;12.20;10.95;;;12.00;99.90;;;;;;5057654;28;20037;-79
2021/09/19 02:53:26;;;;;;;12.30;11.05;;;12.00;99.90;;;;;;5058022;28;20060;-79
2021/09/19 02:55:51;;;;;;;12.60;10.88;;;12.00;99.90;;;;;;5055800;28;20031;-79
2021/09/19 02:58:17;;;;;;;14.75;9.88;;;12.00;99.90;;;;;;5056599;28;20524;-79
2021/09/19 03:00:42;;;;;;;13.57;10.70;;;12.00;99.90;;;;;;5055476;28;20385;-80
2021/09/19 03:03:08;;;;;;;12.02;10.77;;;11.90;99.90;;;;;;5055533;28;20438;-79
2021/09/19 03:05:33;;;;;;;13.35;10.57;;;11.90;99.90;;;;;;5057430;28;20025;-80
2021/09/19 03:07:59;;;;;;;11.40;10.10;;;11.90;99.90;;;;;;5056618;28;20108;-80
2021/09/19 03:10:24;;;;;;;11.00;9.88;;;11.80;99.90;;;;;;5066911;28;20025;-79
2021/09/19 03:12:50;;;;;;;12.70;11.50;;;11.80;99.90;;;;;;5076578;28;20103;-79
2021/09/19 03:15:16;;;;;;;11.38;10.38;;;11.90;99.90;;;;;;5075597;28;20067;-79
2021/09/19 03:17:41;;;;;;;11.32;10.15;;;11.90;99.90;;;;;;5076587;28;20021;-79
2021/09/19 03:20:10;;;;;;;12.75;11.18;;;11.90;99.90;;;;;;5066076;28;20037;-80
2021/09/19 03:22:36;;;;;;;14.32;11.63;;;11.90;99.90;;;;;;5051617;28;20116;-79
2021/09/19 03:25:03;;;;;;;12.20;11.00;;;11.90;99.90;;;;;;5051613;28;20067;-79
2021/09/19 03:27:30;;;;;;;11.95;10.90;;;11.90;99.90;;;;;;5053785;28;20053;-79
2021/09/19 03:29:56;;;;;;;13.02;11.60;;;11.90;99.90;;;;;;5054780;28;20116;-79
2021/09/19 03:32:22;;;;;;;11.75;10.70;;;11.80;99.90;;;;;;5053469;28;20032;-79
2021/09/19 03:34:47;;;;;;;14.63;11.52;;;11.70;99.90;;;;;;5054207;28;20021;-79
2021/09/19 03:37:13;;;;;;;13.07;11.77;;;11.80;99.90;;;;;;5054120;28;20132;-80
2021/09/19 03:39:39;;;;;;;11.23;10.13;;;11.70;99.90;;;;;;5053835;28;20028;-80
2021/09/19 03:42:04;;;;;;;13.18;11.57;;;11.80;99.90;;;;;;5053589;28;20037;-80
2021/09/19 03:44:30;;;;;;;11.60;10.60;;;11.70;99.90;;;;;;5055967;28;20029;-79
2021/09/19 03:46:55;;;;;;;11.73;10.63;;;11.60;99.90;;;;;;5074445;28;20036;-79
2021/09/19 03:49:21;;;;;;;12.20;11.10;;;11.60;99.90;;;;;;5073742;28;20119;-79
2021/09/19 03:51:46;;;;;;;12.00;10.65;;;11.60;99.90;;;;;;5075505;28;20021;-79
2021/09/19 03:54:12;;;;;;;13.45;9.43;;;11.60;99.90;;;;;;5074318;28;20484;-80
2021/09/19 03:56:38;;;;;;;11.95;10.77;;;11.60;99.90;;;;;;5073692;28;20021;-79
2021/09/19 03:59:03;;;;;;;11.75;10.60;;;11.60;99.90;;;;;;5058286;28;20114;-79
2021/09/19 04:01:29;;;;;;;11.35;10.35;;;11.60;99.90;;;;;;5034462;28;20033;-79
2021/09/19 04:03:54;;;;;;;11.82;10.50;;;11.60;99.90;;;;;;5034083;28;20026;-79
2021/09/19 04:06:20;;;;;;;11.13;10.13;;;11.50;99.90;;;;;;5034252;28;20052;-79
2021/09/19 04:08:45;;;;;;;11.63;9.98;;;11.50;99.90;;;;;;5043430;28;20052;-80
2021/09/19 04:11:11;;;;;;;10.45;9.45;;;11.50;99.90;;;;;;5065203;28;20026;-78
2021/09/19 04:13:36;;;;;;;10.25;9.35;;;11.50;99.90;;;;;;5072439;28;20059;-79
2021/09/19 04:16:02;;;;;;;10.45;9.43;;;11.50;99.90;;;;;;5073984;28;20034;-79
2021/09/19 04:18:28;;;;;;;11.70;10.60;;;11.50;99.90;;;;;;5073479;28;20453;-79
2021/09/19 04:20:54;;;;;;;11.50;10.45;;;11.40;99.90;;;;;;5073450;28;20115;-79
2021/09/19 04:23:22;;;;;;;11.27;10.07;;;11.40;99.90;;;;;;5061400;28;20100;-79
2021/09/19 04:25:48;;;;;;;10.77;9.68;;;11.40;99.90;;;;;;5035708;28;20017;-79
2021/09/19 04:28:14;;;;;;;11.20;10.30;;;11.40;99.90;;;;;;5053566;28;20365;-79
2021/09/19 04:30:39;;;;;;;11.05;9.95;;;11.30;99.90;;;;;;5054333;28;20040;-79
2021/09/19 04:33:05;;;;;;;10.98;9.88;;;11.30;99.90;;;;;;5053690;28;20112;-80
2021/09/19 04:35:30;;;;;;;11.20;10.18;;;11.30;99.90;;;;;;5053891;28;20111;-80
2021/09/19 04:37:56;;;;;;;11.48;10.45;;;11.30;99.90;;;;;;5054632;28;20056;-79
2021/09/19 04:40:22;;;;;;;10.38;9.10;;;11.30;99.90;;;;;;5053057;28;20033;-80
2021/09/19 04:42:47;;;;;;;11.25;10.15;;;11.30;99.90;;;;;;5055210;28;20037;-78
2021/09/19 04:45:13;;;;;;;11.45;10.35;;;11.30;99.90;;;;;;5056037;28;20029;-78
2021/09/19 04:47:38;;;;;;;12.45;10.68;;;11.30;99.90;;;;;;5054681;28;20115;-79
2021/09/19 04:50:06;;;;;;;11.07;9.88;;;11.30;99.90;;;;;;5053156;28;20025;-79
2021/09/19 04:52:31;;;;;;;11.88;10.75;;;11.20;99.90;;;;;;5054185;28;20027;-79
2021/09/19 04:54:57;;;;;;;12.48;11.15;;;11.20;99.90;;;;;;5054200;28;20081;-79
2021/09/19 04:57:22;;;;;;;12.57;11.15;;;11.10;99.90;;;;;;5055306;28;20420;-79
2021/09/19 04:59:48;;;;;;;14.02;11.10;;;11.10;99.90;;;;;;5057049;28;20040;-79
2021/09/19 05:02:14;;;;;;;11.20;10.05;;;11.20;99.90;;;;;;5056389;28;20468;-80
2021/09/19 05:04:39;;;;;;;11.63;10.48;;;11.20;99.90;;;;;;5055827;28;20103;-78
2021/09/19 05:07:05;;;;;;;11.50;9.57;;;11.20;99.90;;;;;;5055037;28;20032;-79
2021/09/19 05:09:30;;;;;;;12.60;11.30;;;11.20;99.90;;;;;;5061217;28;20052;-80
2021/09/19 05:11:56;;;;;;;11.23;10.13;;;11.20;99.90;;;;;;5068804;28;20028;-78
2021/09/19 05:14:21;;;;;;;12.45;11.05;;;11.20;99.90;;;;;;5074126;28;20043;-80
2021/09/19 05:16:47;;;;;;;10.40;9.35;;;11.20;99.90;;;;;;5074194;28;20434;-79
2021/09/19 05:19:12;;;;;;;10.98;9.88;;;11.20;99.90;;;;;;5072684;28;20523;-80
2021/09/19 05:21:38;;;;;;;11.00;9.98;;;11.30;99.90;;;;;;5072896;28;20071;-79
2021/09/19 05:24:04;;;;;;;10.90;9.70;;;11.40;99.90;;;;;;5071175;28;20078;-80
2021/09/19 05:26:29;;;;;;;11.25;8.90;;;11.50;99.90;;;;;;5054100;28;20052;-81
2021/09/19 05:28:55;;;;;;;10.55;9.23;;;11.70;99.90;;;;;;5052786;28;20484;-79
2021/09/19 05:31:21;;;;;;;10.73;8.68;;;11.80;99.90;;;;;;5052700;28;20021;-79
2021/09/19 05:33:46;;;;;;;10.07;8.45;;;12.00;99.90;;;;;;5053302;28;20041;-80
2021/09/19 05:36:13;;;;;;;9.23;8.43;;;12.10;99.90;;;;;;5052452;28;20025;-79
2021/09/19 05:38:38;;;;;;;12.55;7.93;;;12.30;99.90;;;;;;5052920;28;20033;-79
2021/09/19 05:41:04;;;;;;;9.90;8.38;;;12.40;99.90;;;;;;5054208;28;20111;-79
2021/09/19 05:43:29;;;;;;;9.10;8.30;;;12.30;99.90;;;;;;5055013;28;20125;-78
2021/09/19 05:45:55;;;;;;;12.65;9.23;;;12.10;99.90;;;;;;5057975;28;20023;-80
2021/09/19 05:48:21;;;;;;;10.05;8.63;;;12.10;99.90;;;;;;5074224;28;20028;-80
2021/09/19 05:50:46;;;;;;;9.55;8.55;;;12.00;99.90;;;;;;5073926;28;20025;-79
2021/09/19 05:53:12;;;;;;;10.38;9.38;;;12.00;99.90;;;;;;5073507;28;20493;-79
2021/09/19 05:55:37;;;;;;;12.05;9.15;;;12.00;99.90;;;;;;5074226;28;20086;-79
2021/09/19 05:58:03;;;;;;;9.38;8.57;;;12.10;99.90;;;;;;5073779;28;20021;-79
2021/09/19 06:00:29;;;;;;;10.25;8.48;;;12.10;99.90;;;;;;5073512;28;20029;-79
2021/09/19 06:02:54;;;;;;;11.77;10.57;;;12.20;99.90;;;;;;5073580;28;20029;-78
2021/09/19 06:05:20;;;;;;;10.45;9.55;;;12.30;99.90;;;;;;5072278;28;20059;-80
2021/09/19 06:07:45;;;;;;;9.95;9.15;;;12.40;99.90;;;;;;5072615;28;20464;-79
2021/09/19 06:10:11;;;;;;;10.82;9.70;;;12.50;99.90;;;;;;5063429;28;20096;-79
2021/09/19 06:12:37;;;;;;;9.20;8.40;;;12.50;99.90;;;;;;5073334;28;20024;-79
2021/09/19 06:15:04;;;;;;;8.88;8.10;;;12.70;99.90;;;;;;5073046;28;20044;-80
2021/09/19 06:17:29;;;;;;;8.93;8.23;;;12.80;99.90;;;;;;5072751;28;20020;-81
2021/09/19 06:19:55;;;;;;;9.05;8.25;;;13.00;99.90;;;;;;5076725;28;20031;-79
2021/09/19 06:22:21;;;;;;;8.43;7.72;;;13.20;99.90;;;;;;5080558;28;20082;-81
2021/09/19 06:24:46;;;;;;;8.30;7.50;;;13.30;99.90;;;;;;5078227;28;20032;-79
2021/09/19 06:27:12;;;;;;;9.27;8.38;;;13.20;99.90;;;;;;5068768;28;20032;-79
2021/09/19 06:29:39;;;;;;;8.38;7.63;;;13.10;99.90;;;;;;5058796;28;20231;-79
2021/09/19 06:32:05;;;;;;;8.52;7.60;;;13.20;99.90;;;;;;5057920;28;20021;-79
2021/09/19 06:34:30;;;;;;;8.73;7.85;;;13.30;99.90;;;;;;5058304;28;20067;-79
2021/09/19 06:36:56;;;;;;;8.57;7.80;;;13.10;99.90;;;;;;5058475;28;20029;-79
2021/09/19 06:39:22;;;;;;;9.27;7.43;;;13.10;99.90;;;;;;5059826;28;20025;-78
2021/09/19 06:41:51;;;;;;;7.60;6.95;;;13.10;99.90;;;;;;5060123;28;20028;-78
2021/09/19 06:44:17;;;;;;;7.18;6.47;;;13.20;99.90;;;;;;5057726;28;20464;-80
2021/09/19 06:46:42;;;;;;;8.07;6.13;;;13.50;99.90;;;;;;5057371;28;20029;-79
2021/09/19 06:49:08;;;;;;;6.97;6.35;;;13.70;99.90;;;;;;5058059;28;20055;-80
2021/09/19 06:51:34;;;;;;;6.93;6.32;;;13.60;99.90;;;;;;5059859;28;20041;-79
2021/09/19 06:53:59;;;;;;;7.18;6.55;;;13.50;99.90;;;;;;5058644;28;20025;-79
2021/09/19 06:56:25;;;;;;;6.97;6.10;;;13.70;99.90;;;;;;5057408;28;20029;-80
2021/09/19 06:58:50;;;;;;;6.88;6.35;;;13.80;99.90;;;;;;5056579;28;20071;-78
2021/09/19 07:01:16;;;;;;;6.25;5.72;;;13.80;99.90;;;;;;5056101;28;20045;-79
2021/09/19 07:03:42;;;;;;;6.38;5.82;;;14.00;99.90;;;;;;5055745;28;20094;-79
2021/09/19 07:06:09;;;;;;;6.07;5.47;;;14.10;99.90;;;;;;5055304;28;20503;-79
2021/09/19 07:08:34;;;;;;;8.70;5.97;;;14.20;99.90;;;;;;5058860;28;20029;-79
2021/09/19 07:11:01;;;;;;;4.85;4.45;;;14.30;99.90;;;;;;5068688;28;20019;-79
2021/09/19 07:13:27;;;;;;;5.30;4.82;;;14.30;99.90;;;;;;5077486;28;20032;-80
2021/09/19 07:15:53;;;;;;;5.47;4.97;;;14.40;99.90;;;;;;5077586;28;20028;-78
2021/09/19 07:18:25;;;;;;;5.57;5.03;;;14.40;99.90;;;;;;5076851;28;20024;-79
2021/09/19 07:20:54;;;;;;;5.53;4.70;;;14.50;99.90;;;;;;5076968;28;20024;-79
2021/09/19 07:23:21;;;;;;;4.82;4.43;;;14.50;99.90;;;;;;5076567;28;20071;-80
2021/09/19 07:25:47;;;;;;;4.97;4.57;;;14.70;99.90;;;;;;5078501;28;20422;-79
2021/09/19 07:28:13;;;;;;;5.50;5.00;;;14.80;99.90;;;;;;5057311;28;20021;-78
2021/09/19 07:30:39;;;;;;;5.82;5.20;;;14.80;99.90;;;;;;5052035;28;20373;-80
2021/09/19 07:33:05;;;;;;;5.80;5.30;;;14.80;99.90;;;;;;5037371;28;20060;-80
2021/09/19 07:35:33;;;;;;;6.07;5.55;;;14.80;99.90;;;;;;5052903;28;20083;-79
2021/09/19 07:37:59;;;;;;;5.82;5.20;;;14.80;99.90;;;;;;5036747;28;20076;-79
2021/09/19 07:40:25;;;;;;;6.63;5.10;;;14.60;99.90;;;;;;5052480;28;20025;-79
2021/09/19 07:42:51;;;;;;;5.85;5.35;;;14.60;99.90;;;;;;5058190;28;20021;-81
2021/09/19 07:45:18;;;;;;;5.45;4.95;;;14.80;99.90;;;;;;5056916;28;20021;-79
2021/09/19 07:47:44;;;;;;;7.38;5.05;;;14.90;99.90;;;;;;5056893;28;20029;-80
2021/09/19 07:50:12;;;;;;;5.70;5.20;;;14.80;99.90;;;;;;5056299;28;20516;-80
2021/09/19 07:52:37;;;;;;;6.32;4.90;;;14.90;99.90;;;;;;5057229;28;20392;-81
2021/09/19 07:55:03;;;;;;;5.63;5.00;;;15.00;99.90;;;;;;5056674;28;20025;-79
2021/09/19 07:57:29;;;;;;;5.07;4.55;;;15.40;99.90;;;;;;5055764;28;20075;-82
2021/09/19 07:59:55;;;;;;;10.75;9.75;;;15.50;99.90;;;;;;5057717;28;20442;-79
2021/09/19 08:02:22;;;;;;;5.65;5.15;;;15.50;99.90;;;;;;5056029;28;20040;-80
2021/09/19 08:04:48;;;;;;;4.88;4.47;;;15.50;99.90;;;;;;5057261;28;20029;-79
2021/09/19 08:07:14;;;;;;;5.18;4.78;;;15.70;99.90;;;;;;5055476;28;20094;-80
2021/09/19 08:09:39;;;;;;;5.38;4.93;;;15.40;99.90;;;;;;5064382;28;20021;-81
2021/09/19 08:12:07;;;;;;;4.97;4.47;;;15.30;99.90;;;;;;5070324;28;20047;-79
2021/09/19 08:14:33;;;;;;;4.93;4.43;;;15.30;99.90;;;;;;5077413;28;20017;-80
2021/09/19 08:16:59;;;;;;;4.88;4.38;;;15.30;99.90;;;;;;5076348;28;20028;-80
2021/09/19 08:19:26;;;;;;;4.85;4.43;;;15.60;99.90;;;;;;5073292;28;20028;-79
2021/09/19 08:21:52;;;;;;;4.85;4.45;;;15.90;99.90;;;;;;5057763;28;20029;-80
2021/09/19 08:24:18;;;;;;;4.82;4.43;;;16.20;99.90;;;;;;5056501;28;20491;-76
2021/09/19 08:26:44;;;;;;;5.57;4.43;;;16.30;99.90;;;;;;5057721;28;20047;-82
2021/09/19 08:29:11;;;;;;;4.43;4.05;;;16.40;99.90;;;;;;5060031;28;20032;-80
2021/09/19 08:31:38;;;;;;;3.95;3.65;;;16.60;99.90;;;;;;5062025;28;20120;-83
2021/09/19 08:34:05;;;;;;;4.53;4.10;;;16.50;99.90;;;;;;5062961;28;20473;-85
2021/09/19 08:36:30;;;;;;;5.43;4.30;;;16.50;99.90;;;;;;5064736;28;20392;-85
2021/09/19 08:38:57;;;;;;;5.13;4.72;;;16.60;99.90;;;;;;5063584;28;20037;-85
2021/09/19 08:41:23;;;;;;;4.50;4.20;;;16.40;99.90;;;;;;5060811;23;20046;-84
2021/09/19 08:43:49;;;;;;;5.25;4.75;;;16.30;99.90;;;;;;5023232;28;20572;-84
2021/09/19 08:46:17;;;;;;;5.07;4.57;;;16.20;99.90;;;;;;5021828;28;20021;-86
2021/09/19 08:48:42;;;;;;;4.72;4.32;;;16.50;99.90;;;;;;5020770;28;20037;-85
2021/09/19 08:51:08;;;;;;;4.15;3.30;;;16.80;99.90;;;;;;5019230;28;20390;-83
2021/09/19 08:53:34;;;;;;;4.68;4.28;;;16.70;99.90;;;;;;5020074;28;20048;-85
2021/09/19 08:56:00;;;;;;;4.53;4.13;;;16.50;99.90;;;;;;5023442;28;20057;-83
2021/09/19 08:58:25;;;;;;;4.85;4.45;;;16.40;99.90;;;;;;5023822;28;20109;-83
2021/09/19 09:00:52;;;;;;;4.38;3.70;;;16.40;99.90;;;;;;5021054;28;20033;-82
2021/09/19 09:03:20;;;;;;;5.13;4.65;;;16.70;99.90;;;;;;5019901;28;20018;-79
2021/09/19 09:06:03;;;;;;;4.65;4.15;;;17.20;99.90;;;;;;5013769;28;20026;-83
2021/09/19 09:08:30;;;;;;;4.22;3.90;;;17.50;99.90;;;;;;5029260;28;20049;-83
2021/09/19 09:10:58;;;;;;;4.57;4.00;;;17.70;99.90;;;;;;5032370;28;20010;-83
2021/09/19 09:13:27;;;;;;;4.22;3.83;;;17.70;99.90;;;;;;5025329;28;20041;-82
2021/09/19 09:16:01;;;;;;;4.78;4.28;;;17.70;99.90;;;;;;5024233;28;20076;-83
2021/09/19 09:18:40;;;;;;;4.32;3.92;;;17.80;99.90;;;;;;5026419;28;20026;-83
2021/09/19 09:21:25;;;;;;;4.25;3.80;;;17.90;99.90;;;;;;5015969;28;20023;-83
2021/09/19 09:23:56;;;;;;;4.65;3.60;;;17.90;99.90;;;;;;5008329;28;20093;-82
2021/09/19 09:26:26;;;;;;;4.40;4.00;;;17.90;99.90;;;;;;5019403;28;20030;-84
2021/09/19 09:28:52;;;;;;;3.63;3.30;;;18.00;99.90;;;;;;5020509;28;20022;-87
2021/09/19 09:31:23;;;;;;;4.10;3.78;;;17.90;99.90;;;;;;5017402;28;20439;-83
2021/09/19 09:34:13;;;;;;;4.07;3.78;;;17.70;99.90;;;;;;5017296;28;20074;-83
2021/09/19 09:36:38;;;;;;;4.70;3.50;;;17.80;99.90;;;;;;5014726;28;20080;-82
2021/09/19 09:39:21;;;;;;;4.63;3.40;;;18.00;99.90;;;;;;5019008;28;20029;-83
2021/09/19 09:41:47;;;;;;;3.22;2.97;;;18.20;99.90;;;;;;5019382;28;20065;-81
2021/09/19 09:44:26;;;;;;;3.95;3.65;;;18.40;99.90;;;;;;5019589;28;20045;-82
2021/09/19 09:46:52;;;;;;;3.75;3.45;;;18.60;99.90;;;;;;5018354;28;20030;-81
2021/09/19 09:49:37;;;;;;;3.90;3.60;;;18.50;99.90;;;;;;5015726;28;20033;-79
2021/09/19 09:52:05;;;;;;;4.07;3.67;;;18.70;99.90;;;;;;5018688;28;20025;-83
2021/09/19 09:54:46;;;;;;;3.65;3.35;;;18.80;99.90;;;;;;5017785;28;20068;-81
2021/09/19 09:57:13;;;;;;;3.70;3.40;;;18.70;99.90;;;;;;5015124;28;20022;-79
2021/09/19 09:59:43;;;;;;;4.35;3.17;;;18.80;99.90;;;;;;5012764;28;20116;-79
2021/09/19 10:02:11;;;;;;;3.50;3.05;;;18.80;99.90;;;;;;5009197;28;20036;-81
2021/09/19 10:04:37;;;;;;;4.50;3.65;;;19.10;99.90;;;;;;5048842;28;20033;-80
2021/09/19 10:07:03;;;;;;;4.22;3.92;;;19.20;99.90;;;;;;5048766;28;20021;-79
2021/09/19 10:09:29;;;;;;;3.95;3.65;;;19.30;99.90;;;;;;5018404;28;20031;-78
2021/09/19 10:11:55;;;;;;;5.55;3.47;;;19.20;99.90;;;;;;5060095;28;20070;-80
2021/09/19 10:14:22;;;;;;;4.38;4.07;;;19.20;99.90;;;;;;5058816;28;20022;-78
2021/09/19 10:16:48;;;;;;;3.90;3.50;;;19.20;99.90;;;;;;5059194;28;20049;-81
2021/09/19 10:19:19;;;;;;;5.25;4.80;;;19.10;99.90;;;;;;5029690;28;20209;-78
2021/09/19 10:21:46;;;;;;;4.13;3.72;;;19.00;99.90;;;;;;5028547;28;20026;-77
2021/09/19 10:24:12;;;;;;;3.63;3.33;;;19.10;99.90;;;;;;5062485;28;20030;-79
2021/09/19 10:26:54;;;;;;;4.53;4.10;;;19.40;99.90;;;;;;5028569;28;20030;-77
2021/09/19 10:29:21;;;;;;;4.38;3.80;;;19.40;99.90;;;;;;5053361;28;20061;-78
2021/09/19 10:31:47;;;;;;;4.75;4.35;;;19.20;99.90;;;;;;5019460;28;20030;-78
2021/09/19 10:34:28;;;;;;;4.68;4.22;;;19.40;99.90;;;;;;5021048;28;20061;-80
2021/09/19 10:36:55;;;;;;;;;;;19.30;99.90;;;;;;5016939;28;20026;-80
2021/09/19 10:39:37;;;;;;;4.68;4.28;;;19.30;99.90;;;;;;5016639;28;19924;-79
2021/09/19 10:42:25;;;;;;;5.05;4.53;;;19.40;99.90;;;;;;5039904;28;20172;-80
2021/09/19 10:44:51;;;;;;;4.55;4.15;;;19.50;99.90;;;;;;5013995;28;20486;-80
2021/09/19 10:47:39;;;;;;;4.40;4.00;;;19.70;99.90;;;;;;5020902;28;20050;-79
2021/09/19 10:50:17;;;;;;;5.10;4.63;;;19.90;99.90;;;;;;5018995;28;20030;-80
2021/09/19 10:52:44;;;;;;;3.80;3.50;;;19.80;99.90;;;;;;5021443;28;20030;-78
2021/09/19 10:55:41;;;;;;;4.50;4.10;;;20.00;99.90;;;;;;5019859;28;20698;-80
2021/09/19 10:58:15;;;;;;;5.05;4.10;;;19.90;99.90;;;;;;5022085;28;20101;-80
2021/09/19 11:00:44;;;;;;;4.50;4.10;;;19.90;99.90;;;;;;5020197;28;20462;-79
2021/09/19 11:03:15;;;;;;;5.35;4.10;;;19.80;99.90;;;;;;5018301;28;20022;-79
2021/09/19 11:05:45;;;;;;;4.80;4.40;;;19.80;99.90;;;;;;5019194;28;20030;-79
2021/09/19 11:08:19;;;;;;;5.13;4.25;;;20.00;99.90;;;;;;5023810;28;20030;-79
2021/09/19 11:10:45;;;;;;;5.95;5.20;;;20.00;99.90;;;;;;5022371;28;20033;-79
2021/09/19 11:13:26;;;;;;;3.92;3.55;;;20.00;99.90;;;;;;5027568;28;20405;-79
2021/09/19 11:16:04;;;;;;;3.63;3.33;;;20.10;99.90;;;;;;5024416;28;20093;-79
2021/09/19 11:18:30;;;;;;;6.00;4.13;;;20.20;99.90;;;;;;5020895;28;20021;-79
2021/09/19 11:21:11;;;;;;;5.38;4.63;;;20.40;99.90;;;;;;5022853;28;20018;-80
2021/09/19 11:23:45;;;;;;;5.93;5.43;;;20.30;99.90;;;;;;5022148;28;20026;-79
2021/09/19 11:26:16;;;;;;;4.55;4.22;;;20.40;99.90;;;;;;5022914;28;20029;-80
2021/09/19 11:28:42;;;;;;;5.28;4.78;;;20.40;99.90;;;;;;5025337;28;20021;-79
2021/09/19 11:31:09;;;;;;;4.55;4.15;;;20.40;99.90;;;;;;5021808;28;20026;-78
2021/09/19 11:34:15;;;;;;;5.07;4.57;;;20.30;99.90;;;;;;5022489;28;20018;-83
2021/09/19 11:36:43;;;;;;;3.95;3.55;;;20.20;99.90;;;;;;5020580;28;20037;-80
2021/09/19 11:39:10;;;;;;;4.85;4.45;;;20.10;99.90;;;;;;5018583;28;20018;-79
2021/09/19 11:41:36;;;;;;;5.03;4.63;;;20.00;99.90;;;;;;5018963;28;20026;-80
2021/09/19 11:44:01;;;;;;;5.47;4.90;;;20.20;99.90;;;;;;5019128;28;20022;-80
2021/09/19 11:46:27;;;;;;;4.30;4.00;;;20.50;99.90;;;;;;5016941;28;20037;-80
2021/09/19 11:48:54;;;;;;;4.70;4.30;;;20.40;99.90;;;;;;5019601;28;20116;-79
2021/09/19 11:51:22;;;;;;;5.00;4.60;;;20.70;99.90;;;;;;5019050;28;20076;-80
2021/09/19 11:53:53;;;;;;;4.25;3.85;;;20.60;99.90;;;;;;5017647;28;20462;-79
2021/09/19 11:56:19;;;;;;;;;;;20.70;99.90;;;;;;5018345;28;20116;-79
2021/09/19 11:58:48;;;;;;;4.30;3.90;;;20.90;99.90;;;;;;5018054;28;19913;-79
2021/09/19 12:01:14;;;;;;;5.35;4.53;;;21.20;99.90;;;;;;5020828;28;20030;-79
2021/09/19 12:03:40;;;;;;;5.88;4.22;;;21.30;99.90;;;;;;5018622;28;20137;-79
2021/09/19 12:06:08;;;;;;;4.68;4.28;;;21.30;99.90;;;;;;5019760;28;20089;-80
2021/09/19 12:08:34;;;;;;;4.40;4.00;;;21.50;99.90;;;;;;5017536;28;20101;-79
2021/09/19 12:11:01;;;;;;;3.30;3.00;;;21.30;99.90;;;;;;5017916;28;20029;-80
2021/09/19 12:13:29;;;;;;;4.30;3.90;;;21.50;99.90;;;;;;5017747;28;20068;-80
2021/09/19 12:16:11;;;;;;;4.70;4.30;;;21.40;99.90;;;;;;5018762;28;20042;-80
2021/09/19 12:18:43;;;;;;;5.85;5.22;;;21.20;99.90;;;;;;5015643;28;20029;-79
2021/09/19 12:21:21;;;;;;;4.40;4.07;;;20.40;99.90;;;;;;5017001;28;20030;-79
2021/09/19 12:23:56;;;;;;;3.88;3.58;;;20.00;99.90;;;;;;5017716;28;20477;-79
2021/09/19 12:26:24;;;;;;;4.75;4.35;;;20.20;99.90;;;;;;5027672;28;20057;-79
2021/09/19 12:28:53;;;;;;;3.80;3.50;;;20.40;99.90;;;;;;5056200;28;20030;-79
2021/09/19 12:31:44;;;;;;;4.20;3.42;;;20.20;99.90;;;;;;5022038;28;20102;-79
2021/09/19 12:34:20;;;;;;;3.47;3.08;;;20.20;99.90;;;;;;5052344;28;20501;-80
2021/09/19 12:36:54;;;;;;;4.28;3.88;;;20.40;99.90;;;;;;5019920;28;20048;-80
2021/09/19 12:39:24;;;;;;;3.92;3.53;;;20.40;99.90;;;;;;5052621;28;20398;-80